sensor_id;sensor_type;location;lat;lon;timestamp;pressure;altitude;pressure_sealevel;temperature;humidity
22572;BME280;11452;53.368;14.658;2023-02-18T00:04:10;100447.13;;;8.05;61.32
22572;BME280;11452;53.368;14.658;2023-02-18T00:09:15;100450.11;;;8.07;61.57
22572;BME280;11452;53.368;14.658;2023-02-18T00:14:21;100461.05;;;8.01;61.54
22572;BME280;11452;53.368;14.658;2023-02-18T00:19:26;100439.62;;;7.95;61.76
22572;BME280;11452;53.368;14.658;2023-02-18T00:24:33;100425.75;;;7.89;61.96
22572;BME280;11452;53.368;14.658;2023-02-18T00:29:39;100470.37;;;7.92;62.10
22572;BME280;11452;53.368;14.658;2023-02-18T00:34:45;100449.23;;;7.89;62.28
22572;BME280;11452;53.368;14.658;2023-02-18T00:39:50;100445.46;;;7.85;62.23
22572;BME280;11452;53.368;14.658;2023-02-18T00:44:55;100443.98;;;7.79;62.43
22572;BME280;11452;53.368;14.658;2023-02-18T00:50:01;100445.47;;;7.76;62.54
22572;BME280;11452;53.368;14.658;2023-02-18T00:55:07;100444.53;;;7.77;62.64
22572;BME280;11452;53.368;14.658;2023-02-18T01:00:13;100458.91;;;7.82;62.66
22572;BME280;11452;53.368;14.658;2023-02-18T01:05:21;100457.90;;;7.84;62.52
22572;BME280;11452;53.368;14.658;2023-02-18T01:10:26;100452.97;;;7.85;62.48
22572;BME280;11452;53.368;14.658;2023-02-18T01:15:33;100448.05;;;7.86;62.57
22572;BME280;11452;53.368;14.658;2023-02-18T01:20:41;100461.52;;;7.92;62.53
22572;BME280;11452;53.368;14.658;2023-02-18T01:25:47;100463.47;;;7.88;62.65
22572;BME280;11452;53.368;14.658;2023-02-18T01:30:53;100467.61;;;7.85;62.63
22572;BME280;11452;53.368;14.658;2023-02-18T01:36:01;100478.10;;;7.88;62.55
22572;BME280;11452;53.368;14.658;2023-02-18T01:41:07;100491.41;;;7.88;62.70
22572;BME280;11452;53.368;14.658;2023-02-18T01:46:15;100471.34;;;7.81;62.67
22572;BME280;11452;53.368;14.658;2023-02-18T01:51:30;100474.58;;;7.79;62.84
22572;BME280;11452;53.368;14.658;2023-02-18T01:56:40;100495.86;;;7.79;62.81
22572;BME280;11452;53.368;14.658;2023-02-18T02:01:45;100511.25;;;7.73;63.01
22572;BME280;11452;53.368;14.658;2023-02-18T02:06:51;100498.09;;;7.70;62.86
22572;BME280;11452;53.368;14.658;2023-02-18T02:33:43;100524.56;;;7.54;63.18
22572;BME280;11452;53.368;14.658;2023-02-18T02:38:53;100521.90;;;7.54;63.12
22572;BME280;11452;53.368;14.658;2023-02-18T02:44:05;100520.05;;;7.46;63.16
22572;BME280;11452;53.368;14.658;2023-02-18T02:54:36;100522.03;;;7.32;63.06
22572;BME280;11452;53.368;14.658;2023-02-18T02:59:45;100517.70;;;7.21;63.22
22572;BME280;11452;53.368;14.658;2023-02-18T03:04:54;100542.88;;;7.12;63.52
22572;BME280;11452;53.368;14.658;2023-02-18T03:20:49;100537.77;;;7.08;63.71
22572;BME280;11452;53.368;14.658;2023-02-18T03:25:56;100549.39;;;7.05;63.84
22572;BME280;11452;53.368;14.658;2023-02-18T03:31:09;100555.86;;;7.00;64.02
22572;BME280;11452;53.368;14.658;2023-02-18T03:36:19;100549.81;;;6.96;64.22
22572;BME280;11452;53.368;14.658;2023-02-18T03:41:25;100558.38;;;6.92;64.39
22572;BME280;11452;53.368;14.658;2023-02-18T03:46:32;100577.71;;;6.96;64.53
22572;BME280;11452;53.368;14.658;2023-02-18T03:51:39;100563.42;;;6.88;64.68
22572;BME280;11452;53.368;14.658;2023-02-18T03:56:45;100565.89;;;6.93;64.63
22572;BME280;11452;53.368;14.658;2023-02-18T04:01:50;100565.89;;;6.93;64.75
22572;BME280;11452;53.368;14.658;2023-02-18T04:06:56;100566.75;;;6.93;64.72
22572;BME280;11452;53.368;14.658;2023-02-18T04:12:02;100567.57;;;6.85;64.83
22572;BME280;11452;53.368;14.658;2023-02-18T04:17:07;100567.97;;;6.86;64.91
22572;BME280;11452;53.368;14.658;2023-02-18T04:22:13;100573.59;;;6.89;65.03
22572;BME280;11452;53.368;14.658;2023-02-18T04:27:19;100571.00;;;6.87;65.10
22572;BME280;11452;53.368;14.658;2023-02-18T04:32:26;100580.56;;;6.91;65.22
22572;BME280;11452;53.368;14.658;2023-02-18T04:37:32;100583.89;;;6.97;65.06
22572;BME280;11452;53.368;14.658;2023-02-18T04:42:38;100581.03;;;7.01;65.24
22572;BME280;11452;53.368;14.658;2023-02-18T04:47:43;100592.70;;;7.07;64.98
22572;BME280;11452;53.368;14.658;2023-02-18T04:52:49;100604.00;;;7.12;65.19
22572;BME280;11452;53.368;14.658;2023-02-18T04:57:54;100589.38;;;7.12;65.17
22572;BME280;11452;53.368;14.658;2023-02-18T05:03:00;100596.76;;;7.16;65.08
22572;BME280;11452;53.368;14.658;2023-02-18T05:08:05;100590.84;;;7.09;65.41
22572;BME280;11452;53.368;14.658;2023-02-18T05:13:12;100597.48;;;7.09;65.48
22572;BME280;11452;53.368;14.658;2023-02-18T05:18:18;100588.58;;;7.10;65.85
22572;BME280;11452;53.368;14.658;2023-02-18T05:23:23;100598.22;;;7.13;65.81
22572;BME280;11452;53.368;14.658;2023-02-18T05:28:29;100605.06;;;7.08;66.15
22572;BME280;11452;53.368;14.658;2023-02-18T05:33:36;100606.22;;;7.03;66.51
22572;BME280;11452;53.368;14.658;2023-02-18T05:38:41;100626.25;;;7.10;66.87
22572;BME280;11452;53.368;14.658;2023-02-18T05:43:47;100616.16;;;7.08;67.12
22572;BME280;11452;53.368;14.658;2023-02-18T05:49:11;100608.66;;;6.97;67.64
22572;BME280;11452;53.368;14.658;2023-02-18T05:54:16;100627.59;;;7.00;67.74
22572;BME280;11452;53.368;14.658;2023-02-18T05:59:22;100634.52;;;7.04;67.98
22572;BME280;11452;53.368;14.658;2023-02-18T06:04:28;100641.92;;;7.06;68.11
22572;BME280;11452;53.368;14.658;2023-02-18T06:09:33;100634.63;;;7.11;68.21
22572;BME280;11452;53.368;14.658;2023-02-18T06:14:39;100636.15;;;7.06;68.46
22572;BME280;11452;53.368;14.658;2023-02-18T06:19:45;100645.53;;;7.15;68.63
22572;BME280;11452;53.368;14.658;2023-02-18T06:24:51;100646.79;;;7.16;68.46
22572;BME280;11452;53.368;14.658;2023-02-18T06:29:56;100660.67;;;7.13;68.69
22572;BME280;11452;53.368;14.658;2023-02-18T06:35:02;100649.52;;;7.15;68.83
22572;BME280;11452;53.368;14.658;2023-02-18T06:40:09;100631.63;;;7.08;69.33
22572;BME280;11452;53.368;14.658;2023-02-18T06:45:15;100636.81;;;7.11;69.36
22572;BME280;11452;53.368;14.658;2023-02-18T06:50:20;100640.41;;;7.10;69.74
22572;BME280;11452;53.368;14.658;2023-02-18T06:55:27;100631.04;;;7.12;70.02
22572;BME280;11452;53.368;14.658;2023-02-18T07:00:32;100643.33;;;7.14;69.95
22572;BME280;11452;53.368;14.658;2023-02-18T07:05:39;100624.53;;;7.19;70.05
22572;BME280;11452;53.368;14.658;2023-02-18T07:10:44;100628.98;;;7.18;70.24
22572;BME280;11452;53.368;14.658;2023-02-18T07:15:51;100620.15;;;7.18;70.18
22572;BME280;11452;53.368;14.658;2023-02-18T07:20:57;100641.28;;;7.21;70.46
22572;BME280;11452;53.368;14.658;2023-02-18T07:26:07;100648.73;;;7.23;70.36
22572;BME280;11452;53.368;14.658;2023-02-18T07:31:14;100630.98;;;7.23;70.36
22572;BME280;11452;53.368;14.658;2023-02-18T07:36:21;100620.92;;;7.30;70.56
22572;BME280;11452;53.368;14.658;2023-02-18T07:41:26;100623.91;;;7.33;70.69
22572;BME280;11452;53.368;14.658;2023-02-18T07:46:32;100620.05;;;7.69;72.57
22572;BME280;11452;53.368;14.658;2023-02-18T07:51:37;100618.12;;;7.62;70.28
22572;BME280;11452;53.368;14.658;2023-02-18T07:56:44;100623.61;;;7.59;70.47
22572;BME280;11452;53.368;14.658;2023-02-18T08:01:50;100611.94;;;7.61;70.51
22572;BME280;11452;53.368;14.658;2023-02-18T08:06:55;100634.94;;;7.73;70.75
22572;BME280;11452;53.368;14.658;2023-02-18T08:12:00;100625.81;;;7.78;70.21
22572;BME280;11452;53.368;14.658;2023-02-18T08:17:06;100618.72;;;7.87;70.45
22572;BME280;11452;53.368;14.658;2023-02-18T08:22:12;100618.70;;;7.97;70.00
22572;BME280;11452;53.368;14.658;2023-02-18T08:27:17;100611.08;;;7.98;69.85
22572;BME280;11452;53.368;14.658;2023-02-18T08:32:27;100615.51;;;8.08;69.85
22572;BME280;11452;53.368;14.658;2023-02-18T08:37:33;100588.57;;;8.06;68.98
22572;BME280;11452;53.368;14.658;2023-02-18T08:42:40;100601.84;;;8.16;69.46
22572;BME280;11452;53.368;14.658;2023-02-18T08:47:46;100593.76;;;8.17;68.80
22572;BME280;11452;53.368;14.658;2023-02-18T08:52:53;100598.86;;;8.22;68.53
22572;BME280;11452;53.368;14.658;2023-02-18T08:57:59;100615.05;;;8.36;68.41
22572;BME280;11452;53.368;14.658;2023-02-18T09:03:05;100595.49;;;8.54;68.54
22572;BME280;11452;53.368;14.658;2023-02-18T09:08:11;100596.78;;;8.64;67.86
22572;BME280;11452;53.368;14.658;2023-02-18T09:13:16;100581.71;;;8.72;67.19
22572;BME280;11452;53.368;14.658;2023-02-18T09:18:22;100573.44;;;8.70;66.40
22572;BME280;11452;53.368;14.658;2023-02-18T09:23:29;100574.43;;;8.76;66.39
22572;BME280;11452;53.368;14.658;2023-02-18T09:28:36;100564.64;;;8.85;65.86
22572;BME280;11452;53.368;14.658;2023-02-18T09:33:45;100550.05;;;8.75;65.05
22572;BME280;11452;53.368;14.658;2023-02-18T09:38:51;100554.70;;;8.71;65.32
22572;BME280;11452;53.368;14.658;2023-02-18T09:43:59;100560.90;;;8.72;65.04
22572;BME280;11452;53.368;14.658;2023-02-18T09:49:11;100552.25;;;8.75;64.24
22572;BME280;11452;53.368;14.658;2023-02-18T09:54:15;100562.05;;;8.75;64.96
22572;BME280;11452;53.368;14.658;2023-02-18T09:59:22;100550.92;;;8.84;64.14
22572;BME280;11452;53.368;14.658;2023-02-18T10:04:39;100535.56;;;8.89;63.45
22572;BME280;11452;53.368;14.658;2023-02-18T10:09:39;100521.50;;;8.94;63.96
22572;BME280;11452;53.368;14.658;2023-02-18T10:14:53;100517.43;;;8.95;63.42
22572;BME280;11452;53.368;14.658;2023-02-18T10:20:00;100506.88;;;9.10;63.57
22572;BME280;11452;53.368;14.658;2023-02-18T10:25:11;100503.86;;;9.00;63.14
22572;BME280;11452;53.368;14.658;2023-02-18T10:30:23;100505.59;;;8.92;63.10
22572;BME280;11452;53.368;14.658;2023-02-18T10:35:37;100484.35;;;8.91;63.13
22572;BME280;11452;53.368;14.658;2023-02-18T10:41:12;100475.19;;;9.68;64.98
22572;BME280;11452;53.368;14.658;2023-02-18T10:51:28;100465.01;;;9.12;63.10
22572;BME280;11452;53.368;14.658;2023-02-18T10:56:41;100466.16;;;8.99;65.00
22572;BME280;11452;53.368;14.658;2023-02-18T11:01:55;100457.66;;;8.75;63.41
22572;BME280;11452;53.368;14.658;2023-02-18T11:07:09;100465.22;;;8.67;64.36
22572;BME280;11452;53.368;14.658;2023-02-18T11:12:33;100459.30;;;8.53;64.87
22572;BME280;11452;53.368;14.658;2023-02-18T11:17:38;100448.80;;;8.50;65.52
22572;BME280;11452;53.368;14.658;2023-02-18T11:22:46;100449.41;;;8.38;66.91
22572;BME280;11452;53.368;14.658;2023-02-18T11:27:55;100435.62;;;8.30;67.13
22572;BME280;11452;53.368;14.658;2023-02-18T11:33:05;100426.78;;;8.12;68.39
22572;BME280;11452;53.368;14.658;2023-02-18T11:43:28;100405.88;;;8.05;69.78
22572;BME280;11452;53.368;14.658;2023-02-18T11:48:35;100392.10;;;7.88;70.29
22572;BME280;11452;53.368;14.658;2023-02-18T11:53:56;100395.30;;;7.86;71.12
22572;BME280;11452;53.368;14.658;2023-02-18T11:59:03;100390.23;;;7.90;72.11
22572;BME280;11452;53.368;14.658;2023-02-18T12:04:19;100389.50;;;8.21;72.57
22572;BME280;11452;53.368;14.658;2023-02-18T12:14:39;100372.84;;;8.00;73.54
22572;BME280;11452;53.368;14.658;2023-02-18T13:18:30;100308.99;;;6.86;78.18
22572;BME280;11452;53.368;14.658;2023-02-18T13:23:42;100303.64;;;6.78;78.80
22572;BME280;11452;53.368;14.658;2023-02-18T13:39:35;100309.62;;;6.35;79.16
22572;BME280;11452;53.368;14.658;2023-02-18T14:00:58;100282.27;;;6.14;79.52
22572;BME280;11452;53.368;14.658;2023-02-18T14:06:13;100271.95;;;6.08;80.24
22572;BME280;11452;53.368;14.658;2023-02-18T14:17:11;100256.33;;;6.21;80.72
22572;BME280;11452;53.368;14.658;2023-02-18T14:21:41;100256.33;;;6.21;80.72
22572;BME280;11452;53.368;14.658;2023-02-18T14:26:48;100260.70;;;6.22;80.28
22572;BME280;11452;53.368;14.658;2023-02-18T14:31:56;100265.92;;;6.05;80.18
22572;BME280;11452;53.368;14.658;2023-02-18T14:37:29;100279.69;;;6.13;80.64
22572;BME280;11452;53.368;14.658;2023-02-18T14:43:00;100273.58;;;6.21;81.19
22572;BME280;11452;53.368;14.658;2023-02-18T14:53:26;100261.08;;;6.04;80.88
22572;BME280;11452;53.368;14.658;2023-02-18T14:58:44;100261.08;;;6.04;80.88
22572;BME280;11452;53.368;14.658;2023-02-18T15:03:43;100258.89;;;6.04;81.47
22572;BME280;11452;53.368;14.658;2023-02-18T15:08:49;100255.78;;;6.04;81.32
22572;BME280;11452;53.368;14.658;2023-02-18T15:13:54;100272.98;;;6.14;81.67
22572;BME280;11452;53.368;14.658;2023-02-18T15:19:04;100272.98;;;6.14;81.67
22572;BME280;11452;53.368;14.658;2023-02-18T15:24:31;100295.27;;;5.92;81.33
22572;BME280;11452;53.368;14.658;2023-02-18T15:29:38;100283.96;;;5.97;82.22
22572;BME280;11452;53.368;14.658;2023-02-18T15:34:44;100292.25;;;6.09;82.23
22572;BME280;11452;53.368;14.658;2023-02-18T15:39:51;100308.36;;;5.95;82.08
22572;BME280;11452;53.368;14.658;2023-02-18T15:45:09;100311.17;;;5.92;82.06
22572;BME280;11452;53.368;14.658;2023-02-18T15:50:06;100319.08;;;5.81;81.99
22572;BME280;11452;53.368;14.658;2023-02-18T15:55:21;100332.47;;;5.78;82.20
22572;BME280;11452;53.368;14.658;2023-02-18T16:00:39;100343.28;;;5.84;82.53
22572;BME280;11452;53.368;14.658;2023-02-18T16:05:45;100363.82;;;5.79;82.28
22572;BME280;11452;53.368;14.658;2023-02-18T16:10:56;100339.48;;;5.59;82.37
22572;BME280;11452;53.368;14.658;2023-02-18T16:16:05;100337.59;;;5.73;82.78
22572;BME280;11452;53.368;14.658;2023-02-18T16:31:46;100390.00;;;5.56;83.68
22572;BME280;11452;53.368;14.658;2023-02-18T16:36:53;100398.25;;;5.48;83.24
22572;BME280;11452;53.368;14.658;2023-02-18T16:42:16;100406.88;;;5.53;83.88
22572;BME280;11452;53.368;14.658;2023-02-18T16:47:22;100406.88;;;5.53;83.88
22572;BME280;11452;53.368;14.658;2023-02-18T16:52:27;100403.71;;;5.55;84.14
22572;BME280;11452;53.368;14.658;2023-02-18T16:57:33;100450.08;;;5.34;84.00
22572;BME280;11452;53.368;14.658;2023-02-18T17:02:38;100450.08;;;5.34;84.00
22572;BME280;11452;53.368;14.658;2023-02-18T17:07:44;100444.15;;;5.27;84.27
22572;BME280;11452;53.368;14.658;2023-02-18T17:12:50;100452.79;;;5.32;84.54
22572;BME280;11452;53.368;14.658;2023-02-18T17:17:56;100460.16;;;5.36;84.60
22572;BME280;11452;53.368;14.658;2023-02-18T17:23:03;100468.16;;;5.22;84.58
22572;BME280;11452;53.368;14.658;2023-02-18T17:28:09;100477.69;;;5.16;85.08
22572;BME280;11452;53.368;14.658;2023-02-18T17:33:17;100487.45;;;5.26;85.29
22572;BME280;11452;53.368;14.658;2023-02-18T17:38:23;100493.16;;;5.27;85.56
22572;BME280;11452;53.368;14.658;2023-02-18T17:43:28;100496.33;;;5.25;85.57
22572;BME280;11452;53.368;14.658;2023-02-18T17:48:34;100494.16;;;5.13;85.32
22572;BME280;11452;53.368;14.658;2023-02-18T17:53:39;100509.30;;;5.09;85.77
22572;BME280;11452;53.368;14.658;2023-02-18T17:58:44;100517.00;;;5.04;85.87
22572;BME280;11452;53.368;14.658;2023-02-18T18:03:51;100532.02;;;4.92;85.86
22572;BME280;11452;53.368;14.658;2023-02-18T18:08:56;100543.22;;;4.75;86.06
22572;BME280;11452;53.368;14.658;2023-02-18T18:14:02;100545.11;;;4.71;86.30
22572;BME280;11452;53.368;14.658;2023-02-18T18:19:08;100545.91;;;4.62;86.46
22572;BME280;11452;53.368;14.658;2023-02-18T18:24:13;100548.91;;;4.51;86.49
22572;BME280;11452;53.368;14.658;2023-02-18T18:29:19;100566.84;;;4.43;86.87
22572;BME280;11452;53.368;14.658;2023-02-18T18:34:24;100581.45;;;4.41;87.27
22572;BME280;11452;53.368;14.658;2023-02-18T18:39:30;100589.31;;;4.30;87.47
22572;BME280;11452;53.368;14.658;2023-02-18T18:44:35;100611.34;;;4.30;87.56
22572;BME280;11452;53.368;14.658;2023-02-18T18:49:41;100621.00;;;4.31;88.12
22572;BME280;11452;53.368;14.658;2023-02-18T18:54:47;100623.05;;;4.36;88.32
22572;BME280;11452;53.368;14.658;2023-02-18T18:59:52;100623.05;;;4.36;88.60
22572;BME280;11452;53.368;14.658;2023-02-18T19:04:57;100628.84;;;4.34;88.72
22572;BME280;11452;53.368;14.658;2023-02-18T19:10:03;100619.18;;;4.33;89.00
22572;BME280;11452;53.368;14.658;2023-02-18T19:15:14;100620.31;;;4.39;89.21
22572;BME280;11452;53.368;14.658;2023-02-18T19:20:23;100643.71;;;4.38;89.04
22572;BME280;11452;53.368;14.658;2023-02-18T19:25:29;100650.14;;;4.44;89.13
22572;BME280;11452;53.368;14.658;2023-02-18T19:30:35;100651.28;;;4.49;89.25
22572;BME280;11452;53.368;14.658;2023-02-18T19:35:41;100662.64;;;4.52;89.26
22572;BME280;11452;53.368;14.658;2023-02-18T19:40:47;100669.77;;;4.50;89.37
22572;BME280;11452;53.368;14.658;2023-02-18T19:45:53;100670.63;;;4.51;89.12
22572;BME280;11452;53.368;14.658;2023-02-18T19:51:03;100684.67;;;4.40;88.97
22572;BME280;11452;53.368;14.658;2023-02-18T19:56:08;100689.83;;;4.44;89.17
22572;BME280;11452;53.368;14.658;2023-02-18T20:01:15;100675.05;;;4.37;89.34
22572;BME280;11452;53.368;14.658;2023-02-18T20:06:21;100696.17;;;4.39;89.65
22572;BME280;11452;53.368;14.658;2023-02-18T20:11:29;100692.61;;;4.40;89.63
22572;BME280;11452;53.368;14.658;2023-02-18T20:16:35;100692.20;;;4.39;89.54
22572;BME280;11452;53.368;14.658;2023-02-18T20:21:41;100689.64;;;4.36;89.68
22572;BME280;11452;53.368;14.658;2023-02-18T20:26:46;100697.03;;;4.39;89.69
22572;BME280;11452;53.368;14.658;2023-02-18T20:31:53;100712.50;;;4.38;89.85
22572;BME280;11452;53.368;14.658;2023-02-18T20:36:59;100693.98;;;4.38;89.71
22572;BME280;11452;53.368;14.658;2023-02-18T20:42:05;100707.66;;;4.38;89.61
22572;BME280;11452;53.368;14.658;2023-02-18T20:47:12;100704.74;;;4.32;89.65
22572;BME280;11452;53.368;14.658;2023-02-18T20:52:18;100707.82;;;4.18;89.45
22572;BME280;11452;53.368;14.658;2023-02-18T20:57:24;100709.81;;;4.10;89.25
22572;BME280;11452;53.368;14.658;2023-02-18T21:02:29;100711.56;;;3.97;89.41
22572;BME280;11452;53.368;14.658;2023-02-18T21:07:35;100715.77;;;3.89;89.40
22572;BME280;11452;53.368;14.658;2023-02-18T21:12:42;100722.14;;;3.82;89.58
22572;BME280;11452;53.368;14.658;2023-02-18T21:17:47;100725.64;;;3.68;89.59
22572;BME280;11452;53.368;14.658;2023-02-18T21:22:53;100738.06;;;3.64;89.94
22572;BME280;11452;53.368;14.658;2023-02-18T21:28:00;100755.23;;;3.64;90.35
22572;BME280;11452;53.368;14.658;2023-02-18T21:33:05;100748.34;;;3.59;90.38
22572;BME280;11452;53.368;14.658;2023-02-18T21:38:11;100748.92;;;3.70;90.82
22572;BME280;11452;53.368;14.658;2023-02-18T21:43:17;100755.63;;;3.81;90.93
22572;BME280;11452;53.368;14.658;2023-02-18T21:48:23;100739.23;;;3.85;90.76
22572;BME280;11452;53.368;14.658;2023-02-18T21:53:47;100743.87;;;3.92;90.84
22572;BME280;11452;53.368;14.658;2023-02-18T21:58:53;100730.52;;;3.96;90.91
22572;BME280;11452;53.368;14.658;2023-02-18T22:03:59;100723.46;;;3.97;90.60
22572;BME280;11452;53.368;14.658;2023-02-18T22:09:05;100714.74;;;3.93;90.57
22572;BME280;11452;53.368;14.658;2023-02-18T22:14:12;100726.02;;;4.00;90.65
22572;BME280;11452;53.368;14.658;2023-02-18T22:19:18;100737.09;;;3.98;90.42
22572;BME280;11452;53.368;14.658;2023-02-18T22:24:24;100731.80;;;3.98;90.72
22572;BME280;11452;53.368;14.658;2023-02-18T22:29:31;100751.59;;;3.99;90.60
22572;BME280;11452;53.368;14.658;2023-02-18T22:34:37;100761.59;;;4.04;90.75
22572;BME280;11452;53.368;14.658;2023-02-18T22:39:42;100760.52;;;4.10;90.78
22572;BME280;11452;53.368;14.658;2023-02-18T22:44:48;100757.46;;;4.09;90.55
22572;BME280;11452;53.368;14.658;2023-02-18T22:49:53;100751.05;;;4.03;90.49
22572;BME280;11452;53.368;14.658;2023-02-18T22:54:58;100759.98;;;3.99;90.52
22572;BME280;11452;53.368;14.658;2023-02-18T23:00:07;100767.87;;;4.00;90.63
22572;BME280;11452;53.368;14.658;2023-02-18T23:05:13;100767.74;;;4.05;90.69
22572;BME280;11452;53.368;14.658;2023-02-18T23:10:20;100771.30;;;4.04;90.53
22572;BME280;11452;53.368;14.658;2023-02-18T23:15:25;100762.45;;;4.05;90.69
22572;BME280;11452;53.368;14.658;2023-02-18T23:20:31;100769.94;;;4.05;90.43
22572;BME280;11452;53.368;14.658;2023-02-18T23:25:59;100764.94;;;4.09;90.80
22572;BME280;11452;53.368;14.658;2023-02-18T23:31:03;100756.96;;;3.96;90.51
22572;BME280;11452;53.368;14.658;2023-02-18T23:36:11;100753.73;;;4.01;90.79
22572;BME280;11452;53.368;14.658;2023-02-18T23:41:18;100755.10;;;4.00;90.66
22572;BME280;11452;53.368;14.658;2023-02-18T23:46:25;100765.59;;;4.03;90.62
22572;BME280;11452;53.368;14.658;2023-02-18T23:51:31;100766.17;;;4.12;90.95
22572;BME280;11452;53.368;14.658;2023-02-18T23:56:37;100758.57;;;4.16;90.93
